PWSweather.com
Personal Weather Stations
Station Observations
DW0826
Near, Fish Camp, CA 93623

NearFish Camp, CA 93623

Lat: 37.454233, Lon: -119.64568

Elevation: 4960

Station Type: Davis VantagePro2

Latest ConditionsUpdated 8:30:07 PM PDT Tuesday, Aug 20, 2019
Currently Today's Max Today's Min Today's Average
Temperature 67.6°F19.8°C 77.9°F25.5°C 62.8°F17.1°C 70.0°F21.1°C
Dew Point 50.3°F10.2°C 54.5°F12.5°C 38.3°F3.5°C 48.0°F8.9°C
Winds 3.0 mph WNW4.8 kmh WNW 10.0 mph -16.1 kmh - - 3.3 mph 5.3 kmh
Wind Gusts 3.0 mph4.8 kmh 17.0 mph27.4 kmh - -
Humidity 54% 54% 38% 46%
Pressure 30.03 in1016.9 mb 30.07 in1018.3 mb 30.02 in1016.6 mb -
Hour Temp Dew Point Humidity Winds Wind Gusts Pressure Precip Precip Rate Daily Precip Total
08:30 PM 67.6°F19.8°C 50.3°F10.2°C 54% 3.0 mph WNW4.8 kmh WNW 3.0 mph4.8 kmh 30.03 in1016.9 mb 0.00 in0.0 mm 0.00 in0.0 mm 0.00 in0.0 mm
08:00 PM 68.9°F20.5°C 50.5°F10.3°C 52% 2.0 mph WNW3.2 kmh WNW 3.0 mph4.8 kmh 30.03 in1016.9 mb 0.00 in0.0 mm 0.00 in0.0 mm 0.00 in0.0 mm
07:30 PM 69.4°F20.8°C 50.9°F10.5°C 52% 2.0 mph WNW3.2 kmh WNW 5.0 mph8.0 kmh 30.02 in1016.6 mb 0.00 in0.0 mm 0.00 in0.0 mm 0.00 in0.0 mm
07:01 PM 71.0°F21.7°C 50.8°F10.4°C 49% 3.0 mph SW4.8 kmh SW 7.0 mph11.3 kmh 30.03 in1016.9 mb 0.00 in0.0 mm 0.00 in0.0 mm 0.00 in0.0 mm
06:30 PM 72.9°F22.7°C 50.8°F10.4°C 46% 6.0 mph SW9.7 kmh SW 10.0 mph16.1 kmh 30.02 in1016.6 mb 0.00 in0.0 mm 0.00 in0.0 mm 0.00 in0.0 mm
06:00 PM 74.2°F23.4°C 50.8°F10.4°C 44% 6.0 mph S9.7 kmh S 8.0 mph12.9 kmh 30.02 in1016.6 mb 0.00 in0.0 mm 0.00 in0.0 mm 0.00 in0.0 mm
05:30 PM 75.4°F24.1°C 51.3°F10.7°C 43% 2.0 mph SSW3.2 kmh SSW 11.0 mph17.7 kmh 30.02 in1016.6 mb 0.00 in0.0 mm 0.00 in0.0 mm 0.00 in0.0 mm
05:00 PM 76.2°F24.6°C 52.0°F11.1°C 43% 2.0 mph NE3.2 kmh NE 11.0 mph17.7 kmh 30.02 in1016.6 mb 0.00 in0.0 mm 0.00 in0.0 mm 0.00 in0.0 mm
04:30 PM 76.5°F24.7°C 52.9°F11.6°C 44% 4.0 mph SE6.4 kmh SE 15.0 mph24.1 kmh 30.02 in1016.6 mb 0.00 in0.0 mm 0.00 in0.0 mm 0.00 in0.0 mm
04:00 PM 76.3°F24.6°C 52.7°F11.5°C 44% 3.0 mph SE4.8 kmh SE 15.0 mph24.1 kmh 30.02 in1016.6 mb 0.00 in0.0 mm 0.00 in0.0 mm 0.00 in0.0 mm
03:30 PM 77.3°F25.2°C 53.6°F12.0°C 44% 5.0 mph SE8.0 kmh SE 15.0 mph24.1 kmh 30.03 in1016.9 mb 0.00 in0.0 mm 0.00 in0.0 mm 0.00 in0.0 mm
03:00 PM 77.9°F25.5°C 53.5°F11.9°C 43% 4.0 mph ESE6.4 kmh ESE 17.0 mph27.4 kmh 30.04 in1017.3 mb 0.00 in0.0 mm 0.00 in0.0 mm 0.00 in0.0 mm
02:30 PM 77.6°F25.3°C 54.5°F12.5°C 45% 3.0 mph SE4.8 kmh SE 13.0 mph20.9 kmh 30.05 in1017.6 mb 0.00 in0.0 mm 0.00 in0.0 mm 0.00 in0.0 mm
02:00 PM 76.7°F24.8°C 53.1°F11.7°C 44% 4.0 mph SE6.4 kmh SE 15.0 mph24.1 kmh 30.05 in1017.6 mb 0.00 in0.0 mm 0.00 in0.0 mm 0.00 in0.0 mm
01:30 PM 75.6°F24.2°C 52.7°F11.5°C 45% 10.0 mph SE16.1 kmh SE 14.0 mph22.5 kmh 30.05 in1017.6 mb 0.00 in0.0 mm 0.00 in0.0 mm 0.00 in0.0 mm
01:00 PM 74.7°F23.7°C 51.9°F11.1°C 45% 6.0 mph E9.7 kmh E 17.0 mph27.4 kmh 30.06 in1017.9 mb 0.00 in0.0 mm 0.00 in0.0 mm 0.00 in0.0 mm
12:30 PM 75.4°F24.1°C 51.3°F10.7°C 43% 7.0 mph SSE11.3 kmh SSE 13.0 mph20.9 kmh 30.06 in1017.9 mb 0.00 in0.0 mm 0.00 in0.0 mm 0.00 in0.0 mm
12:00 PM 75.2°F24.0°C 51.1°F10.6°C 43% 6.0 mph S9.7 kmh S 13.0 mph20.9 kmh 30.06 in1017.9 mb 0.00 in0.0 mm 0.00 in0.0 mm 0.00 in0.0 mm
11:30 AM 74.6°F23.7°C 49.3°F9.6°C 41% 4.0 mph ESE6.4 kmh ESE 10.0 mph16.1 kmh 30.06 in1017.9 mb 0.00 in0.0 mm 0.00 in0.0 mm 0.00 in0.0 mm
11:00 AM 74.1°F23.4°C 50.1°F10.1°C 43% 3.0 mph E4.8 kmh E 10.0 mph16.1 kmh 30.07 in1018.3 mb 0.00 in0.0 mm 0.00 in0.0 mm 0.00 in0.0 mm
10:30 AM 72.3°F22.4°C 49.1°F9.5°C 44% 4.0 mph SSE6.4 kmh SSE 12.0 mph19.3 kmh 30.06 in1017.9 mb 0.00 in0.0 mm 0.00 in0.0 mm 0.00 in0.0 mm
10:00 AM 72.4°F22.4°C 51.0°F10.6°C 47% 9.0 mph SE14.5 kmh SE 11.0 mph17.7 kmh 30.06 in1017.9 mb 0.00 in0.0 mm 0.00 in0.0 mm 0.00 in0.0 mm
09:30 AM 71.3°F21.8°C 50.0°F10.0°C 47% 3.0 mph E4.8 kmh E 8.0 mph12.9 kmh 30.05 in1017.6 mb 0.00 in0.0 mm 0.00 in0.0 mm 0.00 in0.0 mm
09:00 AM 70.2°F21.2°C 46.6°F8.1°C 43% 2.0 mph ENE3.2 kmh ENE 4.0 mph6.4 kmh 30.05 in1017.6 mb 0.00 in0.0 mm 0.00 in0.0 mm 0.00 in0.0 mm
08:30 AM 68.5°F20.3°C 42.5°F5.8°C 39% 2.0 mph N3.2 kmh N 8.0 mph12.9 kmh 30.04 in1017.3 mb 0.00 in0.0 mm 0.00 in0.0 mm 0.00 in0.0 mm
08:00 AM 65.6°F18.7°C 41.2°F5.1°C 41% 3.0 mph NNW4.8 kmh NNW 10.0 mph16.1 kmh 30.05 in1017.6 mb 0.00 in0.0 mm 0.00 in0.0 mm 0.00 in0.0 mm
07:30 AM 64.5°F18.1°C 38.3°F3.5°C 38% 9.0 mph N14.5 kmh N 10.0 mph16.1 kmh 30.05 in1017.6 mb 0.00 in0.0 mm 0.00 in0.0 mm 0.00 in0.0 mm
07:00 AM 63.1°F17.3°C 41.9°F5.5°C 46% 1.0 mph NNW1.6 kmh NNW 7.0 mph11.3 kmh 30.04 in1017.3 mb 0.00 in0.0 mm 0.00 in0.0 mm 0.00 in0.0 mm
06:30 AM 63.2°F17.3°C 45.7°F7.6°C 53% 2.0 mph NW3.2 kmh NW 3.0 mph4.8 kmh 30.04 in1017.3 mb 0.00 in0.0 mm 0.00 in0.0 mm 0.00 in0.0 mm
06:00 AM 63.5°F17.5°C 45.0°F7.2°C 51% 2.0 mph NW3.2 kmh NW 3.0 mph4.8 kmh 30.04 in1017.3 mb 0.00 in0.0 mm 0.00 in0.0 mm 0.00 in0.0 mm
05:30 AM 63.8°F17.7°C 44.7°F7.1°C 50% Calm Calm 3.0 mph4.8 kmh 30.03 in1016.9 mb 0.00 in0.0 mm 0.00 in0.0 mm 0.00 in0.0 mm
05:00 AM 64.4°F18.0°C 43.7°F6.5°C 47% 1.0 mph WNW1.6 kmh WNW 3.0 mph4.8 kmh 30.03 in1016.9 mb 0.00 in0.0 mm 0.00 in0.0 mm 0.00 in0.0 mm
04:30 AM 64.3°F17.9°C 41.9°F5.5°C 44% Calm Calm 3.0 mph4.8 kmh 30.03 in1016.9 mb 0.00 in0.0 mm 0.00 in0.0 mm 0.00 in0.0 mm
04:00 AM 64.8°F18.2°C 41.7°F5.4°C 43% 2.0 mph WNW3.2 kmh WNW 5.0 mph8.0 kmh 30.02 in1016.6 mb 0.00 in0.0 mm 0.00 in0.0 mm 0.00 in0.0 mm
03:30 AM 62.8°F17.1°C 43.8°F6.6°C 50% 2.0 mph NW3.2 kmh NW 8.0 mph12.9 kmh 30.02 in1016.6 mb 0.00 in0.0 mm 0.00 in0.0 mm 0.00 in0.0 mm
03:00 AM 64.3°F17.9°C 45.2°F7.3°C 50% 3.0 mph W4.8 kmh W 7.0 mph11.3 kmh 30.02 in1016.6 mb 0.00 in0.0 mm 0.00 in0.0 mm 0.00 in0.0 mm
02:30 AM 64.8°F18.2°C 45.1°F7.3°C 49% 2.0 mph NW3.2 kmh NW 3.0 mph4.8 kmh 30.03 in1016.9 mb 0.00 in0.0 mm 0.00 in0.0 mm 0.00 in0.0 mm
02:00 AM 65.6°F18.7°C 45.3°F7.4°C 48% 1.0 mph W1.6 kmh W 4.0 mph6.4 kmh 30.03 in1016.9 mb 0.00 in0.0 mm 0.00 in0.0 mm 0.00 in0.0 mm
01:30 AM 66.3°F19.1°C 46.5°F8.1°C 49% 3.0 mph W4.8 kmh W 4.0 mph6.4 kmh 30.03 in1016.9 mb 0.00 in0.0 mm 0.00 in0.0 mm 0.00 in0.0 mm
01:00 AM 65.7°F18.7°C 45.4°F7.4°C 48% 1.0 mph WSW1.6 kmh WSW 4.0 mph6.4 kmh 30.03 in1016.9 mb 0.00 in0.0 mm 0.00 in0.0 mm 0.00 in0.0 mm
12:30 AM 67.4°F19.7°C 44.7°F7.1°C 44% 2.0 mph SW3.2 kmh SW 5.0 mph8.0 kmh 30.04 in1017.3 mb 0.00 in0.0 mm 0.00 in0.0 mm 0.00 in0.0 mm
12:00 AM 65.4°F18.6°C 44.6°F7.0°C 47% 1.0 mph NW1.6 kmh NW 3.0 mph4.8 kmh 30.03 in1016.9 mb 0.00 in0.0 mm 0.00 in0.0 mm 0.00 in0.0 mm